createdAt,value
2022-08-18T00:04:29.922Z,15.9
2022-08-18T00:10:32.025Z,15.9
2022-08-18T00:15:41.458Z,15.9
2022-08-18T00:21:31.781Z,15.9
2022-08-18T00:27:11.818Z,15.9
2022-08-18T00:32:55.253Z,15.8
2022-08-18T00:38:40.652Z,15.8
2022-08-18T00:44:31.634Z,15.6
2022-08-18T00:50:36.895Z,15.5
2022-08-18T00:56:27.851Z,15.4
2022-08-18T01:02:05.452Z,15.3
2022-08-18T01:07:43.343Z,15.3
2022-08-18T01:13:57.908Z,15.3
2022-08-18T01:19:48.212Z,15.2
2022-08-18T01:25:26.079Z,15.1
2022-08-18T01:30:55.334Z,15.1
2022-08-18T01:36:53.462Z,15.1
2022-08-18T01:44:35.969Z,15
2022-08-18T01:50:32.530Z,14.9
2022-08-18T01:56:11.994Z,14.9
2022-08-18T02:01:53.602Z,14.9
2022-08-18T02:08:28.948Z,14.8
2022-08-18T02:14:16.523Z,14.8
2022-08-18T02:20:16.431Z,14.6
2022-08-18T02:25:40.783Z,14.6
2022-08-18T02:31:21.851Z,14.5
2022-08-18T02:37:00.135Z,14.4
2022-08-18T02:42:42.181Z,14.4
2022-08-18T02:48:05.410Z,14.3
2022-08-18T02:53:44.597Z,14.3
2022-08-18T02:59:33.554Z,14.2
2022-08-18T03:05:14.952Z,14.1
2022-08-18T03:11:23.327Z,14.1
2022-08-18T03:17:11.313Z,14
2022-08-18T03:23:27.025Z,13.9
2022-08-18T03:29:31.099Z,13.9
2022-08-18T03:35:01.980Z,13.8
2022-08-18T03:40:39.616Z,13.7
2022-08-18T03:47:20.496Z,13.8
2022-08-18T03:52:58.095Z,13.8
2022-08-18T03:58:36.078Z,13.9
2022-08-18T04:04:19.263Z,14.1
2022-08-18T04:10:14.026Z,14.2
2022-08-18T04:15:59.051Z,14.4
2022-08-18T04:22:17.220Z,14.6
2022-08-18T04:28:04.156Z,14.9
2022-08-18T04:33:45.871Z,15.2
2022-08-18T04:39:13.090Z,15.6
2022-08-18T04:45:00.530Z,16.3
2022-08-18T04:50:40.763Z,17.8
2022-08-18T04:57:39.713Z,20.4
2022-08-18T05:03:16.922Z,22.2
2022-08-18T05:08:53.463Z,23.7
2022-08-18T05:14:32.529Z,25.4
2022-08-18T05:20:56.740Z,27.3
2022-08-18T05:26:55.486Z,29.3
2022-08-18T05:33:21.549Z,31.6
2022-08-18T05:39:04.310Z,34.4
2022-08-18T05:44:43.719Z,37.1
2022-08-18T05:50:26.004Z,39.6
2022-08-18T05:56:10.351Z,42.6
2022-08-18T06:01:50.449Z,45.3
2022-08-18T06:07:32.678Z,48.3
2022-08-18T06:13:28.002Z,51.3
2022-08-18T06:18:55.851Z,54.1
2022-08-18T06:24:40.824Z,57
2022-08-18T06:30:17.825Z,59.8
2022-08-18T06:36:08.413Z,61.1
2022-08-18T06:42:16.945Z,49.7
2022-08-18T06:48:15.438Z,54.8
2022-08-18T06:54:17.904Z,62.4
2022-08-18T07:00:08.385Z,50.3
2022-08-18T07:05:49.273Z,55.6
2022-08-18T07:11:37.926Z,58.3
2022-08-18T07:18:08.008Z,51.6
2022-08-18T07:24:07.823Z,58
2022-08-18T07:29:30.158Z,53.8
2022-08-18T07:35:31.554Z,55
2022-08-18T07:41:36.016Z,55.9
2022-08-18T07:47:42.198Z,57.8
2022-08-18T07:56:00.120Z,58.7
2022-08-18T08:02:15.386Z,59.8
2022-08-18T08:08:41.497Z,60.8
2022-08-18T08:15:05.111Z,61.5
2022-08-18T08:21:27.136Z,62.5
2022-08-18T08:27:43.971Z,63.2
2022-08-18T08:33:38.418Z,64
2022-08-18T08:40:23.556Z,64.5
2022-08-18T08:46:27.063Z,65.4
2022-08-18T08:52:20.191Z,66
2022-08-18T08:58:03.271Z,66.2
2022-08-18T09:04:06.501Z,67.3
2022-08-18T09:09:59.439Z,67
2022-08-18T09:15:35.916Z,67
2022-08-18T09:21:22.902Z,68.2
2022-08-18T09:26:59.897Z,67.6
2022-08-18T13:06:48.572Z,67.4
2022-08-18T13:14:27.093Z,73.4
2022-08-18T13:21:11.147Z,76.3
2022-08-18T13:27:52.144Z,66.6
2022-08-18T13:35:19.133Z,65.7
2022-08-18T13:41:32.500Z,64.1
2022-08-18T13:48:07.695Z,66.8
2022-08-18T13:54:29.377Z,69.4
2022-08-18T14:00:46.875Z,70.9
2022-08-18T14:08:10.097Z,70.9
2022-08-18T14:14:35.887Z,70.4
2022-08-18T14:20:04.971Z,69.4
2022-08-18T14:26:19.001Z,67.4
2022-08-18T14:32:53.145Z,65.2
2022-08-18T14:40:07.066Z,64.1
2022-08-18T14:47:33.839Z,62.4
2022-08-18T14:53:46.930Z,61.1
2022-08-18T14:59:54.328Z,57.9
2022-08-18T15:06:43.428Z,54.4
2022-08-18T15:13:05.122Z,51.9
2022-08-18T15:20:33.459Z,49.7
2022-08-18T15:26:42.240Z,47.7
2022-08-18T15:33:58.529Z,45.5
2022-08-18T15:40:47.408Z,44.1
2022-08-18T15:47:10.126Z,42.6
2022-08-18T15:53:48.017Z,41.1
2022-08-18T16:00:30.369Z,39.8
2022-08-18T16:07:09.831Z,38.6
2022-08-18T16:13:19.946Z,37.6
2022-08-18T16:19:25.588Z,36.8
2022-08-18T16:25:11.545Z,36.1
2022-08-18T16:30:52.655Z,35.4
2022-08-18T16:36:35.801Z,34.8
2022-08-18T16:42:18.901Z,34.2
2022-08-18T16:47:58.136Z,33.6
2022-08-18T16:53:56.526Z,33.1
2022-08-18T17:00:00.631Z,32.5
2022-08-18T17:06:05.209Z,31.9
2022-08-18T17:12:08.064Z,31.4
2022-08-18T17:17:45.882Z,30.9
2022-08-18T17:23:27.562Z,30.4
2022-08-18T17:30:02.487Z,29.8
2022-08-18T17:35:45.670Z,29.3
2022-08-18T17:41:24.028Z,28.8
2022-08-18T17:47:23.493Z,28.3
2022-08-18T17:53:27.994Z,27.9
2022-08-18T17:59:45.284Z,27.4
2022-08-18T18:05:39.531Z,26.7
2022-08-18T18:11:50.228Z,26.1
2022-08-18T18:17:31.236Z,25.5
2022-08-18T18:23:45.800Z,25.2
2022-08-18T18:29:38.930Z,24.8
2022-08-18T18:35:03.101Z,24.5
2022-08-18T18:40:46.010Z,24.3
2022-08-18T18:46:35.340Z,24.1
2022-08-18T18:53:02.124Z,23.8
2022-08-18T18:58:43.831Z,23.7
2022-08-18T19:04:51.679Z,23.6
2022-08-18T19:10:37.796Z,23.6
2022-08-18T19:16:57.648Z,23.5
2022-08-18T19:24:56.691Z,23.4
2022-08-18T19:31:13.848Z,23.3
2022-08-18T19:38:04.881Z,23.1
2022-08-18T19:43:49.908Z,22.8
2022-08-18T19:49:36.821Z,22.6
2022-08-18T19:55:56.448Z,22.4
2022-08-18T20:01:55.154Z,22.3
2022-08-18T20:07:50.979Z,22.1
2022-08-18T20:13:43.660Z,22
2022-08-18T20:19:50.146Z,21.9
2022-08-18T20:25:16.382Z,21.7
2022-08-18T20:31:00.560Z,21.6
2022-08-18T20:36:37.751Z,21.4
2022-08-18T20:42:20.263Z,21.3
2022-08-18T20:48:23.362Z,21.2
2022-08-18T20:54:29.868Z,21.1
2022-08-18T21:00:43.804Z,20.9
2022-08-18T21:06:27.513Z,20.8
2022-08-18T21:12:30.975Z,20.6
2022-08-18T21:18:15.292Z,20.4
2022-08-18T21:24:02.444Z,20.2
2022-08-18T21:29:44.330Z,20
2022-08-18T21:35:45.959Z,19.8
2022-08-18T21:41:42.103Z,19.6
2022-08-18T21:47:07.566Z,19.4
2022-08-18T21:52:33.035Z,19.3
2022-08-18T21:58:11.019Z,19.2
2022-08-18T22:03:55.684Z,19.1
2022-08-18T22:10:02.815Z,18.9
2022-08-18T22:16:38.697Z,18.9
2022-08-18T22:27:27.703Z,18.6
2022-08-18T22:33:11.049Z,18.6
2022-08-18T22:38:48.000Z,18.4
2022-08-18T22:44:13.210Z,18.4
2022-08-18T22:50:00.378Z,18.3
2022-08-18T22:55:41.482Z,18.2
2022-08-18T23:02:21.849Z,18
2022-08-18T23:07:29.708Z,17.9
2022-08-18T23:13:20.780Z,17.8
2022-08-18T23:18:51.252Z,17.7
2022-08-18T23:24:42.237Z,17.6
2022-08-18T23:30:29.981Z,17.5
2022-08-18T23:36:13.822Z,17.4
2022-08-18T23:41:59.939Z,17.3
2022-08-18T23:47:37.901Z,17.3
2022-08-18T23:53:23.364Z,17.1
